Aviation Digital Data Service (ADDS)

Output produced by METARs form (0520 UTC 25 June 2017)
found at http://aviationweather.gov/adds/metars/
 
KFKL 250137Z 2502/2524 27010G20KT 6SM -SHRA VCTS BKN050CB 
     FM250400 26007KT P6SM FEW060 
     FM251500 25010G22KT P6SM SCT060 AMD LTD TO CLD VIS AND WIND